Hauptseite
METAR-TAF:

METAR-TAF

Flughäfen :

Agen, Frankreich

Flughafen Agen

Breite: 44-11N, Länge: 000-36E, Höhe: 61 m

Beobachtung

Neuester Wetterbericht von vor 23 Minuten, um 11:30 UTC
Wind 3 kt aus Südost
Temperatur 11°C
Luftfeuchtigkeit 100%
Luftdruck 1030 hPa
Sichtweite: 2700 m
Geschlossene Wolkendecke in der Höhe von 600 ft
feuchter Dunst

METAR: LFBA 231130Z AUTO 13003KT 2700 BR OVC006 11/11 Q1030 TEMPO OVC004

Zeit: 12:53 (11:53 UTC)

Prognose

Neuester Wetterbericht von vor 53 Minuten, um 11:00 UTC
Gültige Prognose vom 23 um 12 UTC bis 23 um 21 UTC
Wind 5 kt aus Ost/Südost
Sichtweite 10 km oder mehr
Durchbrochene Bewölkung in der Höhe von 1200 ft
Zeitweise
vom 23 um 12 UTC bis 23 um 18 UTC
Sichtweite: 2500 m
Geschlossene Wolkendecke in der Höhe von 400 ft
Sprühregen leicht, Regen

TAF: LFBA 231100Z 2312/2321 11005KT 9999 BKN012 TEMPO 2312/2318 2500 -DZRA OVC004

Wetterbeobachtungen und Prognosen von mehr als 4000 Flughäfen (METAR und TAF Bericht).

Die verfügbaren Stationen werden durch gelbe und rote Markierungen auf der Karte dargestellt.

Führen Sie die Maus auf sie, um den Namen der Station zu sehen.

Darauf klicken, um die Beobachtung von Wetterbeobachtungen und Prognosen zu sehen.

Um die Karte zu ändern : klicken Sie auf den grünen Tasten mit einem schwarzen Kreuz Zum Vergrößern, auf den grünen Button mit einem Gedankenstrich zu verkleinern, oder auf die grünen Pfeile für benachbarte Karten.


METAR-TAF: